DTTADTTZ

Guest
Details From DTTA - CARTHAGE
To DTTZ - NEFTA
Flight Number -
Tags generated
Created
Modified
Stats Distance 204 nm / 378 km
Max Altitude 22,100 ft / 6,736 m
Waypoints 3
Social Downloads 1
Likes 0
Share VATSIM

Download

Looking for another format? Having issues loading an existing format? Contact us
Advertisement - Login to hide

Notes

Basic altitude profile: - Ascent Rate: 2500ft/min - Ascent Speed: 250kts - Cruise Altitude: 35000ft - Cruise Speed: 420kts - Descent Rate: 1500ft/min - Descent Speed: 250kts Options: - Use NATs: yes - Use PACOTS: yes - Use low airways: yes - Use high airways: yes

Route

DTTA ROGBA DTTZ

ID Type Via Altitude Latitude Longitude Leg Dist Tot Dist Heading (true) Name
O DTTA APT - 0 ft / 0 m 36.85127˚ 10.23003˚ - 0 nm - CARTHAGE
ROGBA FIX - 22,100 ft / 6,736 m 35.55000˚ 9.06722˚ 96 nm 96 nm 216° / 215° -
O DTTZ APT - 0 ft / 0 m 33.93961˚ 8.10111˚ 107 nm 204 nm 207° / 206° NEFTA

Altitude Profile

Advertisement - Login to hide

Weather


0- 5 10 15 20 25 30 35+ Temperature / ° C

Clouds and Precipitation
Forecast for 2017-12-13 06:00 UTC. Updated 42 minutes ago

Ground ~20,000 ft ~40,000 ft Winds

DTTA

Details ICAO DTTA (TUN)
Name CARTHAGE
Region Tunisia
Timezone Africa/Tunis (UTC+1.0)
Stats Elevation 22 ft / 7 m (AMSL)
Location 36.851267° 10.230027°
Runways 2
Magnetic Variation 2.403° E

METAR

DTTA 130400Z 16002KT 9999 FEW033 11/09 Q1020 NOSIG

Decode

TAF

TAF DTTA 122300Z 1300/1324 18006KT CAVOK BECMG 1302/1304 34014KT 9999 SCT023

Decode

Departure Runways

ID Width Length Bearing (true) Bearing (mag) Surface Threshold Offset Overrun Length
01 148 ft / 45 m 10,502 ft / 3,201 m 12.29° 9.89° Asphalt 0 ft / 0 m 197 ft / 60 m
11 148 ft / 45 m 9,345 ft / 2,848 m 112.55° 110.15° Asphalt 0 ft / 0 m 643 ft / 196 m
19 148 ft / 45 m 10,502 ft / 3,201 m 192.29° 189.89° Asphalt 0 ft / 0 m 197 ft / 60 m
29 148 ft / 45 m 9,345 ft / 2,848 m 292.57° 290.17° Asphalt 657 ft / 200 m 197 ft / 60 m

DTTZ

Details ICAO DTTZ (TOE)
Name NEFTA
Region Tunisia
Timezone Africa/Tunis (UTC+1.0)
Stats Elevation 287 ft / 87 m (AMSL)
Location 33.939610° 8.101109°
Runways 1
Magnetic Variation 1.889° E

METAR

DTTZ 130400Z 08004KT CAVOK 10/03 Q1021 NOSIG

Decode

TAF

TAF DTTZ 121710Z 1218/1318 12010KT CAVOK

Decode

Destination Runways

ID Width Length Bearing (true) Bearing (mag) Surface Threshold Offset Overrun Length
09 148 ft / 45 m 10,551 ft / 3,216 m 90.07° 88.18° Asphalt 0 ft / 0 m 197 ft / 60 m
27 148 ft / 45 m 10,551 ft / 3,216 m 270.09° 268.20° Asphalt 0 ft / 0 m 197 ft / 60 m

Approach Navaids

Runway Type Ident Frequency Range Bearing (true) Bearing (mag) Slope Elevation
09 Localiser TOZ 110.50 MHz 18 nm / 33 km 89.64° 87.75° - 287 ft / 87 m (AMSL)
09 Glidescope TOZ 110.50 MHz 10 nm / 19 km 90.08° 88.19° 3.00° 287 ft / 87 m (AMSL)